createdAt,value
2023-04-10T00:00:13.096Z,9.40
2023-04-10T00:01:13.076Z,9.40
2023-04-10T00:02:13.349Z,9.20
2023-04-10T00:03:14.023Z,9.30
2023-04-10T00:04:13.561Z,9.30
2023-04-10T00:05:13.780Z,9.20
2023-04-10T00:06:13.988Z,9.20
2023-04-10T00:07:12.918Z,9.20
2023-04-10T00:08:13.022Z,9.00
2023-04-10T00:09:12.922Z,9.00
2023-04-10T00:10:14.179Z,9.10
2023-04-10T00:11:13.328Z,9.00
2023-04-10T00:12:13.332Z,9.20
2023-04-10T00:13:13.627Z,9.00
2023-04-10T00:14:13.488Z,9.00
2023-04-10T00:15:13.659Z,9.00
2023-04-10T00:16:13.623Z,9.00
2023-04-10T00:17:13.511Z,9.10
2023-04-10T00:18:13.628Z,9.20
2023-04-10T00:19:13.523Z,9.10
2023-04-10T00:20:13.427Z,9.00
2023-04-10T00:21:13.365Z,9.00
2023-04-10T00:22:13.260Z,8.90
2023-04-10T00:23:13.511Z,8.90
2023-04-10T00:24:13.804Z,8.90
2023-04-10T00:25:13.892Z,9.00
2023-04-10T00:26:13.001Z,9.00
2023-04-10T00:27:12.898Z,9.10
2023-04-10T00:28:13.460Z,9.20
2023-04-10T00:29:13.443Z,9.20
2023-04-10T00:30:13.395Z,9.20
2023-04-10T00:31:13.307Z,9.20
2023-04-10T00:32:13.601Z,9.10
2023-04-10T00:33:13.710Z,8.90
2023-04-10T00:34:13.866Z,8.80
2023-04-10T00:35:13.866Z,8.80
2023-04-10T00:36:13.907Z,8.90
2023-04-10T00:37:12.855Z,8.90
2023-04-10T00:38:14.033Z,8.90
2023-04-10T00:39:13.103Z,8.90
2023-04-10T00:40:13.101Z,8.80
2023-04-10T00:41:13.270Z,8.80
2023-04-10T00:42:13.179Z,8.70
2023-04-10T00:43:14.751Z,8.70
2023-04-10T00:44:13.604Z,8.60
2023-04-10T00:45:13.859Z,8.60
2023-04-10T00:46:13.832Z,8.60
2023-04-10T00:47:12.981Z,8.60
2023-04-10T00:48:12.977Z,8.60
2023-04-10T00:49:13.151Z,8.70
2023-04-10T00:50:13.233Z,8.50
2023-04-10T00:51:13.840Z,8.60
2023-04-10T00:52:13.709Z,8.70
2023-04-10T00:53:13.762Z,8.60
2023-04-10T00:54:14.052Z,8.70
2023-04-10T00:55:13.017Z,8.70
2023-04-10T00:56:12.855Z,8.60
2023-04-10T00:57:13.949Z,8.60
2023-04-10T00:58:13.532Z,8.50
2023-04-10T00:59:13.412Z,8.50
2023-04-10T01:00:13.511Z,8.50
2023-04-10T01:01:13.532Z,8.50
2023-04-10T01:02:13.794Z,8.50
2023-04-10T01:03:14.149Z,8.60
2023-04-10T01:04:13.299Z,8.70
2023-04-10T01:05:13.330Z,8.70
2023-04-10T01:06:13.417Z,8.70
2023-04-10T01:07:13.630Z,8.70
2023-04-10T01:08:13.633Z,8.70
2023-04-10T01:09:13.778Z,8.70
2023-04-10T01:10:13.617Z,8.60
2023-04-10T01:11:13.562Z,8.80
2023-04-10T01:12:13.594Z,8.80
2023-04-10T01:13:13.566Z,8.70
2023-04-10T01:14:13.604Z,8.90
2023-04-10T01:15:13.803Z,8.80
2023-04-10T01:16:13.970Z,8.90
2023-04-10T01:17:13.286Z,8.90
2023-04-10T01:18:13.298Z,8.80
2023-04-10T01:19:13.407Z,9.00
2023-04-10T01:20:13.318Z,9.00
2023-04-10T01:21:13.543Z,9.10
2023-04-10T01:22:13.454Z,9.20
2023-04-10T01:23:13.483Z,8.90
2023-04-10T01:24:13.406Z,9.20
2023-04-10T01:25:13.602Z,9.20
2023-04-10T01:26:13.639Z,9.20
2023-04-10T01:27:13.753Z,9.30
2023-04-10T01:28:13.626Z,9.20
2023-04-10T01:29:13.506Z,9.20
2023-04-10T01:30:13.359Z,9.30
2023-04-10T01:31:13.217Z,9.40
2023-04-10T01:32:13.100Z,9.50
2023-04-10T01:33:12.982Z,9.50
2023-04-10T01:34:13.235Z,9.60
2023-04-10T01:35:13.299Z,9.50
2023-04-10T01:36:13.439Z,9.20
2023-04-10T01:37:13.470Z,9.20
2023-04-10T01:38:13.752Z,9.20
2023-04-10T01:39:14.192Z,9.30
2023-04-10T01:40:13.357Z,9.30
2023-04-10T01:41:13.784Z,9.30
2023-04-10T01:42:13.857Z,9.40
2023-04-10T01:43:13.825Z,9.30
2023-04-10T01:44:13.664Z,9.60
2023-04-10T01:45:13.580Z,9.60
2023-04-10T01:46:13.499Z,9.40
2023-04-10T01:47:13.769Z,9.70
2023-04-10T01:48:26.831Z,9.60
2023-04-10T01:49:31.635Z,9.50
2023-04-10T01:50:13.601Z,9.50
2023-04-10T01:51:13.610Z,9.50
2023-04-10T01:52:13.445Z,9.40
2023-04-10T01:53:13.848Z,9.40
2023-04-10T01:54:13.728Z,9.30
2023-04-10T01:55:14.013Z,9.20
2023-04-10T01:56:12.968Z,9.30
2023-04-10T01:57:12.980Z,9.30
2023-04-10T01:58:12.900Z,9.20
2023-04-10T01:59:12.758Z,9.00
2023-04-10T02:00:13.668Z,9.10
2023-04-10T02:01:22.541Z,9.20
2023-04-10T02:02:13.782Z,9.40
2023-04-10T02:03:14.070Z,9.20
2023-04-10T02:04:13.140Z,9.50
2023-04-10T02:05:13.073Z,9.40
2023-04-10T02:06:13.111Z,9.50
2023-04-10T02:07:13.062Z,9.50
2023-04-10T02:08:12.925Z,9.60
2023-04-10T02:09:12.951Z,9.60
2023-04-10T02:10:12.983Z,9.60
2023-04-10T02:11:13.127Z,9.70
2023-04-10T02:12:13.188Z,9.60
2023-04-10T02:13:13.094Z,9.30
2023-04-10T02:14:13.173Z,9.60
2023-04-10T02:15:13.334Z,9.60
2023-04-10T02:16:13.429Z,9.70
2023-04-10T02:17:13.382Z,9.60
2023-04-10T02:18:13.193Z,9.40
2023-04-10T02:19:13.227Z,9.30
2023-04-10T02:20:13.140Z,9.50
2023-04-10T02:21:12.981Z,9.40
2023-04-10T02:22:13.030Z,9.50
2023-04-10T02:23:12.856Z,9.40
2023-04-10T02:24:13.770Z,9.20
2023-04-10T02:25:13.648Z,9.40
2023-04-10T02:26:13.546Z,9.40
2023-04-10T02:27:13.752Z,9.10
2023-04-10T02:28:13.675Z,9.10
2023-04-10T02:29:13.549Z,9.10
2023-04-10T02:30:13.748Z,9.00
2023-04-10T02:31:13.801Z,9.00
2023-04-10T02:32:14.133Z,9.00
2023-04-10T02:33:13.376Z,9.10
2023-04-10T02:34:13.593Z,9.00
2023-04-10T02:35:13.857Z,9.10
2023-04-10T02:36:14.279Z,8.90
2023-04-10T02:37:13.281Z,9.00
2023-04-10T02:38:16.811Z,9.10
2023-04-10T02:39:13.291Z,9.10
2023-04-10T02:40:13.128Z,9.00
2023-04-10T02:41:13.424Z,9.00
2023-04-10T02:42:13.311Z,9.00
2023-04-10T02:43:13.487Z,9.00
2023-04-10T02:44:13.414Z,9.00
2023-04-10T02:45:13.631Z,9.00
2023-04-10T02:46:13.921Z,9.10
2023-04-10T02:47:13.106Z,9.20
2023-04-10T02:48:13.140Z,9.20
2023-04-10T02:49:13.449Z,9.30
2023-04-10T02:50:13.466Z,9.40
2023-04-10T02:51:13.458Z,9.40
2023-04-10T02:52:13.721Z,9.30
2023-04-10T02:53:13.685Z,9.30
2023-04-10T02:54:13.581Z,9.30
2023-04-10T02:55:13.455Z,9.00
2023-04-10T02:56:13.396Z,8.90
2023-04-10T02:57:13.376Z,9.20
2023-04-10T02:58:15.177Z,9.40
2023-04-10T02:59:13.447Z,9.20
2023-04-10T03:00:13.645Z,9.50
2023-04-10T03:01:13.641Z,9.50
2023-04-10T03:02:13.628Z,9.60
2023-04-10T03:03:13.902Z,9.70
2023-04-10T03:04:13.483Z,9.70
2023-04-10T03:05:13.823Z,9.70
2023-04-10T03:06:13.987Z,9.40
2023-04-10T03:07:13.177Z,9.30
2023-04-10T03:08:13.160Z,9.30
2023-04-10T03:09:13.314Z,9.40
2023-04-10T03:10:13.383Z,9.60
2023-04-10T03:11:13.341Z,9.60
2023-04-10T03:12:13.210Z,9.40
2023-04-10T03:13:13.425Z,9.40
2023-04-10T03:14:13.391Z,9.50
2023-04-10T03:15:13.464Z,9.50
2023-04-10T03:16:13.579Z,9.50
2023-04-10T03:17:13.627Z,9.40
2023-04-10T03:18:13.811Z,9.50
2023-04-10T03:19:13.984Z,9.40
2023-04-10T03:20:12.810Z,9.30
2023-04-10T03:21:13.710Z,9.60
2023-04-10T03:22:13.651Z,9.60
2023-04-10T03:23:13.944Z,9.50
2023-04-10T03:24:12.835Z,9.40
2023-04-10T03:25:13.907Z,9.40
2023-04-10T03:26:12.937Z,9.50
2023-04-10T03:27:12.924Z,9.40
2023-04-10T03:28:12.786Z,9.40
2023-04-10T03:29:13.744Z,9.30
2023-04-10T03:30:13.617Z,9.30
2023-04-10T03:31:13.501Z,9.30
2023-04-10T03:32:13.511Z,9.40
2023-04-10T03:33:13.540Z,9.40
2023-04-10T03:34:13.585Z,9.30
2023-04-10T03:35:13.650Z,9.40
2023-04-10T03:36:13.528Z,9.40
2023-04-10T03:37:13.456Z,9.40
2023-04-10T03:38:13.384Z,9.40
2023-04-10T03:39:13.320Z,9.20
2023-04-10T03:40:13.220Z,9.10
2023-04-10T03:41:13.036Z,9.10
2023-04-10T03:42:12.898Z,9.20
2023-04-10T03:43:13.047Z,9.10
2023-04-10T03:44:12.944Z,9.00
2023-04-10T03:45:14.251Z,9.10
2023-04-10T03:46:13.585Z,9.00
2023-04-10T03:47:13.546Z,8.70
2023-04-10T03:48:13.444Z,9.00
2023-04-10T03:49:13.332Z,9.00
2023-04-10T03:50:13.210Z,9.10
2023-04-10T03:51:13.469Z,9.10
2023-04-10T03:52:13.390Z,9.10
2023-04-10T03:53:13.453Z,9.10
2023-04-10T03:54:13.297Z,9.00
2023-04-10T03:55:13.195Z,9.10
2023-04-10T03:56:13.024Z,8.80
2023-04-10T03:57:13.032Z,9.00
2023-04-10T03:58:13.278Z,9.10
2023-04-10T03:59:13.198Z,9.10
2023-04-10T04:00:13.311Z,9.10
2023-04-10T04:01:13.221Z,9.00
2023-04-10T04:02:18.348Z,9.10
2023-04-10T04:03:13.551Z,9.10
2023-04-10T04:04:14.036Z,9.20
2023-04-10T04:05:13.125Z,9.10
2023-04-10T04:06:13.017Z,9.20
2023-04-10T04:07:12.991Z,9.00
2023-04-10T04:08:12.843Z,9.40
2023-04-10T04:09:13.866Z,9.20
2023-04-10T04:10:13.793Z,9.20
2023-04-10T04:11:14.018Z,9.40
2023-04-10T04:12:12.846Z,9.50
2023-04-10T04:13:14.034Z,9.40
2023-04-10T04:14:13.008Z,9.60
2023-04-10T04:15:13.203Z,9.50
2023-04-10T04:16:13.217Z,9.60
2023-04-10T04:17:13.280Z,9.50
2023-04-10T04:18:13.103Z,9.20
2023-04-10T04:19:12.995Z,9.30
2023-04-10T04:20:13.065Z,9.10
2023-04-10T04:21:13.026Z,9.00
2023-04-10T04:22:13.267Z,9.20
2023-04-10T04:23:13.391Z,9.30
2023-04-10T04:24:13.305Z,9.40
2023-04-10T04:25:13.386Z,9.20
2023-04-10T04:26:13.615Z,9.20
2023-04-10T04:27:13.562Z,9.50
2023-04-10T04:28:13.863Z,9.60
2023-04-10T04:29:13.736Z,9.50
2023-04-10T04:30:13.620Z,9.50
2023-04-10T04:31:13.631Z,9.40
2023-04-10T04:32:14.139Z,9.40
2023-04-10T04:33:13.392Z,9.40
2023-04-10T04:34:13.245Z,9.40
2023-04-10T04:35:13.409Z,9.40
2023-04-10T04:36:13.339Z,9.50
2023-04-10T04:37:13.194Z,9.40
2023-04-10T04:38:13.051Z,9.30
2023-04-10T04:39:13.127Z,9.40
2023-04-10T04:40:13.305Z,9.50
2023-04-10T04:41:13.637Z,9.50
2023-04-10T04:42:13.918Z,9.50
2023-04-10T04:43:12.802Z,9.50
2023-04-10T04:44:13.716Z,8.90
2023-04-10T04:45:13.829Z,9.10
2023-04-10T04:46:13.755Z,9.20
2023-04-10T04:47:15.209Z,9.40
2023-04-10T04:48:13.353Z,9.30
2023-04-10T04:49:13.441Z,9.10
2023-04-10T04:50:13.362Z,9.40
2023-04-10T04:51:13.511Z,9.40
2023-04-10T04:52:14.080Z,9.40
2023-04-10T04:53:13.157Z,9.40
2023-04-10T04:54:13.332Z,9.40
2023-04-10T04:55:13.287Z,9.30
2023-04-10T04:56:13.372Z,9.30
2023-04-10T04:57:13.682Z,9.20
2023-04-10T04:58:13.636Z,9.10
2023-04-10T04:59:13.836Z,9.00
2023-04-10T05:00:12.778Z,9.00
2023-04-10T05:01:13.665Z,9.10
2023-04-10T05:02:13.733Z,9.00
2023-04-10T05:03:13.862Z,9.00
2023-04-10T05:04:13.549Z,9.20
2023-04-10T05:05:13.832Z,9.40
2023-04-10T05:06:13.909Z,9.30
2023-04-10T05:07:13.164Z,9.20
2023-04-10T05:08:13.293Z,9.50
2023-04-10T05:09:13.679Z,9.40
2023-04-10T05:10:13.650Z,9.40
2023-04-10T05:11:13.625Z,9.40
2023-04-10T05:12:13.557Z,9.20
2023-04-10T05:13:13.693Z,9.20
2023-04-10T05:14:13.564Z,9.30
2023-04-10T05:15:13.641Z,9.10
2023-04-10T05:16:13.638Z,9.00
2023-04-10T05:17:13.683Z,9.10
2023-04-10T05:18:13.940Z,9.10
2023-04-10T05:19:12.899Z,9.00
2023-04-10T05:20:12.897Z,9.20
2023-04-10T05:21:14.871Z,9.20
2023-04-10T05:22:13.826Z,9.10
2023-04-10T05:23:13.749Z,9.10
2023-04-10T05:24:13.569Z,8.90
2023-04-10T05:25:13.483Z,9.10
2023-04-10T05:26:13.648Z,8.90
2023-04-10T05:27:13.710Z,9.20
2023-04-10T05:28:13.596Z,9.10
2023-04-10T05:29:13.509Z,8.90
2023-04-10T05:30:13.344Z,9.00
2023-04-10T05:31:13.267Z,9.10
2023-04-10T05:32:13.104Z,9.20
2023-04-10T05:33:13.386Z,9.30
2023-04-10T05:34:13.302Z,9.10
2023-04-10T05:35:13.341Z,9.10
2023-04-10T05:36:13.657Z,9.10
2023-04-10T05:37:13.624Z,9.20
2023-04-10T05:38:13.840Z,9.00
2023-04-10T05:39:13.076Z,9.10
2023-04-10T05:40:13.135Z,9.20
2023-04-10T05:41:13.308Z,9.30
2023-04-10T05:42:13.283Z,9.00
2023-04-10T05:43:13.306Z,9.30
2023-04-10T05:44:13.214Z,9.50
2023-04-10T05:45:13.198Z,9.50
2023-04-10T05:46:13.075Z,9.50
2023-04-10T05:47:13.139Z,9.60
2023-04-10T05:48:13.028Z,9.60
2023-04-10T05:49:12.970Z,9.50
2023-04-10T05:50:12.815Z,9.50
2023-04-10T05:51:14.927Z,9.50
2023-04-10T05:52:12.715Z,9.50
2023-04-10T05:53:13.605Z,9.70
2023-04-10T05:54:13.708Z,9.80
2023-04-10T05:55:13.592Z,9.40
2023-04-10T05:56:13.457Z,9.50
2023-04-10T05:57:13.414Z,9.50
2023-04-10T05:58:13.452Z,9.70
2023-04-10T05:59:13.406Z,9.50
2023-04-10T06:00:13.262Z,9.90
2023-04-10T06:01:13.221Z,9.50
2023-04-10T06:02:13.202Z,9.70
2023-04-10T06:03:13.583Z,10.00
2023-04-10T06:04:13.591Z,10.20
2023-04-10T06:05:13.706Z,10.40
2023-04-10T06:06:13.577Z,10.10
2023-04-10T06:07:13.588Z,10.40
2023-04-10T06:08:13.437Z,10.30
2023-04-10T06:09:13.552Z,10.50
2023-04-10T06:10:13.765Z,10.50
2023-04-10T06:11:13.932Z,10.60
2023-04-10T06:12:13.215Z,10.70
2023-04-10T06:13:13.305Z,10.80
2023-04-10T06:14:13.130Z,10.90
2023-04-10T06:15:14.157Z,10.70
2023-04-10T06:16:13.207Z,11.00
2023-04-10T06:17:13.511Z,10.90
2023-04-10T06:18:13.468Z,10.40
2023-04-10T06:19:13.466Z,10.50
2023-04-10T06:20:13.718Z,10.80
2023-04-10T06:21:13.649Z,11.00
2023-04-10T06:22:14.052Z,11.10
2023-04-10T06:23:13.225Z,11.10
2023-04-10T06:24:13.698Z,11.40
2023-04-10T06:25:13.561Z,11.20
2023-04-10T06:26:13.911Z,11.30
2023-04-10T06:27:12.984Z,11.40
2023-04-10T06:28:12.780Z,11.60
2023-04-10T06:29:13.850Z,11.70
2023-04-10T06:30:13.813Z,11.80
2023-04-10T06:31:13.819Z,12.00
2023-04-10T06:32:13.681Z,11.90
2023-04-10T06:33:13.934Z,11.90
2023-04-10T06:34:13.325Z,11.60
2023-04-10T06:35:13.730Z,12.00
2023-04-10T06:36:13.958Z,11.80
2023-04-10T06:37:13.006Z,11.80
2023-04-10T06:38:12.901Z,12.20
2023-04-10T06:39:12.841Z,12.30
2023-04-10T06:40:14.026Z,12.60
2023-04-10T06:41:12.895Z,12.60
2023-04-10T06:42:12.968Z,12.40
2023-04-10T06:43:13.346Z,12.30
2023-04-10T06:44:13.335Z,12.50
2023-04-10T06:45:13.562Z,12.40
2023-04-10T06:46:13.582Z,12.20
2023-04-10T06:47:13.816Z,12.40
2023-04-10T06:48:13.958Z,12.40
2023-04-10T06:49:12.899Z,12.70
2023-04-10T06:50:12.977Z,12.90
2023-04-10T06:51:13.082Z,12.60
2023-04-10T06:52:13.413Z,12.80
2023-04-10T06:53:13.375Z,12.90
2023-04-10T06:54:13.555Z,13.10
2023-04-10T06:55:13.522Z,13.10
2023-04-10T06:56:13.395Z,12.90
2023-04-10T06:57:13.216Z,13.10
2023-04-10T06:58:13.999Z,13.00
2023-04-10T06:59:13.072Z,13.10
2023-04-10T07:00:13.178Z,12.70
2023-04-10T07:01:13.258Z,13.10
2023-04-10T07:02:13.141Z,13.30
2023-04-10T07:03:13.234Z,13.40
2023-04-10T07:04:13.487Z,13.00
2023-04-10T07:05:13.718Z,13.20
2023-04-10T07:06:13.951Z,13.30
2023-04-10T07:07:13.349Z,13.70
2023-04-10T07:08:13.643Z,13.50
2023-04-10T07:09:13.949Z,13.40
2023-04-10T07:10:13.093Z,13.50
2023-04-10T07:11:13.510Z,13.70
2023-04-10T07:12:13.716Z,14.10
2023-04-10T07:13:13.934Z,13.80
2023-04-10T07:14:13.167Z,14.00
2023-04-10T07:15:13.397Z,13.80
2023-04-10T07:16:13.894Z,14.00
2023-04-10T07:17:13.269Z,14.00
2023-04-10T07:18:13.255Z,14.30
2023-04-10T07:19:13.240Z,14.50
2023-04-10T07:20:13.138Z,14.30
2023-04-10T07:21:13.176Z,14.40
2023-04-10T07:22:13.364Z,14.70
2023-04-10T07:23:13.842Z,14.80
2023-04-10T07:24:13.889Z,14.10
2023-04-10T07:25:13.784Z,14.50
2023-04-10T07:26:13.767Z,14.70
2023-04-10T07:27:13.910Z,14.80
2023-04-10T07:28:13.157Z,14.70
2023-04-10T07:29:13.351Z,14.50
2023-04-10T07:30:13.824Z,15.10
2023-04-10T07:31:13.294Z,15.20
2023-04-10T07:32:13.600Z,15.50
2023-04-10T07:33:13.674Z,15.10
2023-04-10T07:34:13.968Z,14.60
2023-04-10T07:35:13.025Z,15.10
2023-04-10T07:36:13.100Z,14.80
2023-04-10T07:37:13.059Z,15.10
2023-04-10T07:38:13.025Z,14.90
2023-04-10T07:39:13.232Z,14.60
2023-04-10T07:40:13.153Z,14.50
2023-04-10T07:41:13.302Z,14.80
2023-04-10T07:42:13.312Z,15.30
2023-04-10T07:43:13.455Z,16.10
2023-04-10T07:44:13.396Z,14.90
2023-04-10T07:45:13.786Z,15.00
2023-04-10T07:46:14.035Z,15.20
2023-04-10T07:47:13.264Z,15.20
2023-04-10T07:48:13.490Z,15.40
2023-04-10T07:49:13.679Z,15.70
2023-04-10T07:50:14.063Z,15.10
2023-04-10T07:51:13.042Z,14.80
2023-04-10T07:52:13.081Z,14.80
2023-04-10T07:53:13.515Z,15.20
2023-04-10T07:54:13.890Z,14.80
2023-04-10T07:55:13.130Z,15.00
2023-04-10T07:56:13.017Z,15.20
2023-04-10T07:57:13.171Z,15.30
2023-04-10T07:58:13.519Z,15.00
2023-04-10T07:59:13.864Z,14.80
2023-04-10T08:00:13.799Z,15.20
2023-04-10T08:01:13.937Z,15.20
2023-04-10T08:02:12.984Z,15.40
2023-04-10T08:03:14.714Z,15.40
2023-04-10T08:04:13.026Z,15.20
2023-04-10T08:05:13.646Z,15.90
2023-04-10T08:06:15.398Z,15.50
2023-04-10T08:07:13.751Z,15.20
2023-04-10T08:08:13.862Z,15.50
2023-04-10T08:09:13.849Z,15.70
2023-04-10T08:10:13.952Z,16.10
2023-04-10T08:11:13.009Z,15.80
2023-04-10T08:12:12.927Z,15.70
2023-04-10T08:13:12.927Z,15.40
2023-04-10T08:14:12.944Z,15.50
2023-04-10T08:15:12.927Z,15.50
2023-04-10T08:16:12.896Z,15.10
2023-04-10T08:17:13.012Z,15.60
2023-04-10T08:18:13.955Z,15.50
2023-04-10T08:19:12.870Z,15.20
2023-04-10T08:20:12.955Z,14.90
2023-04-10T08:21:12.879Z,14.70
2023-04-10T08:22:13.679Z,15.10
2023-04-10T08:23:20.361Z,15.00
2023-04-10T08:24:12.947Z,15.40
2023-04-10T08:25:12.904Z,15.30
2023-04-10T08:26:13.095Z,15.20
2023-04-10T08:27:13.029Z,15.00
2023-04-10T08:28:13.130Z,15.20
2023-04-10T08:29:13.165Z,15.40
2023-04-10T08:30:13.228Z,15.40
2023-04-10T08:31:13.260Z,15.40
2023-04-10T08:32:13.273Z,16.10
2023-04-10T08:33:13.499Z,15.40
2023-04-10T08:34:13.786Z,15.70
2023-04-10T08:35:13.821Z,15.70
2023-04-10T08:36:13.815Z,15.40
2023-04-10T08:37:13.800Z,15.70
2023-04-10T08:38:14.674Z,15.60
2023-04-10T08:39:12.974Z,15.80
2023-04-10T08:40:13.167Z,15.70
2023-04-10T08:41:13.304Z,15.90
2023-04-10T08:42:13.485Z,16.10
2023-04-10T08:43:13.683Z,15.50
2023-04-10T08:44:13.796Z,15.70
2023-04-10T08:45:13.822Z,16.00
2023-04-10T08:46:13.708Z,16.20
2023-04-10T08:47:13.925Z,16.10
2023-04-10T08:48:12.946Z,16.20
2023-04-10T08:49:13.138Z,16.40
2023-04-10T08:50:13.353Z,16.40
2023-04-10T08:51:19.468Z,16.30
2023-04-10T08:52:13.096Z,16.80
2023-04-10T08:53:13.041Z,16.50
2023-04-10T08:54:13.186Z,15.90
2023-04-10T08:55:13.057Z,16.00
2023-04-10T08:56:13.218Z,16.90
2023-04-10T08:57:13.064Z,16.30
2023-04-10T08:58:13.300Z,16.80
2023-04-10T08:59:13.362Z,17.00
2023-04-10T09:00:23.080Z,16.70
2023-04-10T09:01:13.481Z,17.00
2023-04-10T09:02:13.720Z,16.30
2023-04-10T09:03:14.179Z,16.30
2023-04-10T09:04:13.382Z,16.90
2023-04-10T09:05:14.157Z,16.10
2023-04-10T09:06:13.095Z,16.60
2023-04-10T09:07:13.105Z,16.20
2023-04-10T09:08:13.056Z,16.90
2023-04-10T09:09:13.066Z,16.50
2023-04-10T09:10:13.356Z,16.40
2023-04-10T09:11:13.914Z,17.20
2023-04-10T09:12:13.379Z,17.00
2023-04-10T09:13:13.363Z,16.60
2023-04-10T09:14:13.613Z,16.50
2023-04-10T09:15:13.747Z,16.90
2023-04-10T09:16:14.297Z,16.70
2023-04-10T09:17:13.338Z,17.60
2023-04-10T09:18:13.225Z,18.10
2023-04-10T09:19:13.260Z,17.90
2023-04-10T09:20:13.122Z,17.90
2023-04-10T09:21:13.102Z,17.50
2023-04-10T09:22:13.011Z,17.60
2023-04-10T09:23:13.584Z,17.40
2023-04-10T09:24:13.539Z,18.10
2023-04-10T09:25:13.787Z,17.80
2023-04-10T09:26:14.128Z,18.60
2023-04-10T09:27:13.120Z,19.10
2023-04-10T09:28:13.229Z,18.30
2023-04-10T09:29:13.133Z,18.30
2023-04-10T09:30:13.000Z,18.70
2023-04-10T09:31:13.307Z,17.70
2023-04-10T09:32:15.028Z,18.20
2023-04-10T09:33:13.052Z,18.20
2023-04-10T09:34:13.434Z,18.20
2023-04-10T09:35:13.649Z,18.10
2023-04-10T09:36:15.781Z,18.50
2023-04-10T09:37:14.646Z,18.40
2023-04-10T09:38:13.595Z,18.70
2023-04-10T09:39:13.860Z,19.30
2023-04-10T09:40:13.689Z,19.00
2023-04-10T09:41:13.777Z,18.40
2023-04-10T09:42:13.959Z,17.60
2023-04-10T09:43:12.841Z,17.70
2023-04-10T09:44:13.811Z,18.40
2023-04-10T09:45:13.952Z,18.70
2023-04-10T09:46:13.167Z,18.40
2023-04-10T09:47:13.288Z,17.90
2023-04-10T09:48:15.068Z,17.90
2023-04-10T09:49:13.115Z,18.10
2023-04-10T09:50:13.252Z,18.30
2023-04-10T09:51:13.262Z,18.30
2023-04-10T09:52:13.559Z,19.00
2023-04-10T09:53:15.087Z,18.70
2023-04-10T09:54:13.189Z,18.30
2023-04-10T09:55:13.152Z,18.00
2023-04-10T09:56:13.241Z,17.80
2023-04-10T09:57:13.201Z,18.70
2023-04-10T09:58:14.716Z,18.90
2023-04-10T09:59:13.793Z,18.90
2023-04-10T10:00:15.331Z,17.70
2023-04-10T10:01:16.814Z,17.60
2023-04-10T10:02:13.796Z,17.90
2023-04-10T10:03:14.168Z,17.60
2023-04-10T10:04:13.609Z,17.80
2023-04-10T10:05:13.802Z,18.40
2023-04-10T10:06:13.060Z,17.90
2023-04-10T10:07:13.119Z,17.70
2023-04-10T10:08:13.461Z,18.90
2023-04-10T10:09:14.162Z,19.30
2023-04-10T10:10:14.095Z,19.40
2023-04-10T10:11:13.665Z,19.30
2023-04-10T10:12:15.056Z,19.20
2023-04-10T10:13:14.807Z,19.10
2023-04-10T10:14:14.011Z,19.30
2023-04-10T10:15:13.145Z,19.20
2023-04-10T10:16:13.208Z,18.60
2023-04-10T10:17:14.492Z,18.50
2023-04-10T10:18:13.395Z,19.40
2023-04-10T10:19:15.572Z,19.50
2023-04-10T10:20:13.546Z,19.20
2023-04-10T10:21:13.714Z,19.40
2023-04-10T10:22:13.913Z,19.30
2023-04-10T10:23:13.012Z,18.80
2023-04-10T10:24:13.039Z,18.40
2023-04-10T10:25:13.999Z,18.40
2023-04-10T10:26:12.996Z,18.70
2023-04-10T10:27:13.079Z,19.00
2023-04-10T10:28:13.090Z,18.40
2023-04-10T10:29:13.255Z,18.00
2023-04-10T10:30:28.366Z,19.20
2023-04-10T10:31:15.783Z,19.40
2023-04-10T10:32:14.576Z,19.80
2023-04-10T10:33:16.974Z,19.50
2023-04-10T10:34:14.377Z,18.80
2023-04-10T10:35:15.697Z,19.00
2023-04-10T10:36:14.697Z,19.30
2023-04-10T10:37:16.365Z,18.30
2023-04-10T10:38:14.917Z,18.80
2023-04-10T10:39:15.498Z,18.10
2023-04-10T10:40:18.207Z,18.20
2023-04-10T10:41:15.330Z,18.40
2023-04-10T10:42:18.025Z,18.10
2023-04-10T10:43:15.598Z,18.40
2023-04-10T10:44:13.450Z,18.70
2023-04-10T10:45:16.737Z,18.30
2023-04-10T10:46:14.251Z,19.10
2023-04-10T10:47:17.439Z,19.00
2023-04-10T10:48:16.263Z,19.00
2023-04-10T10:49:16.020Z,18.70
2023-04-10T10:50:17.104Z,18.50
2023-04-10T10:51:14.409Z,18.70
2023-04-10T10:52:13.499Z,18.10
2023-04-10T10:53:13.380Z,18.90
2023-04-10T10:54:13.469Z,19.20
2023-04-10T10:55:13.536Z,19.90
2023-04-10T10:56:15.078Z,19.50
2023-04-10T10:57:17.220Z,19.80
2023-04-10T10:58:16.197Z,20.30
2023-04-10T10:59:15.988Z,20.10
2023-04-10T11:00:14.918Z,19.90
2023-04-10T11:01:16.958Z,20.10
2023-04-10T11:02:18.671Z,19.80
2023-04-10T11:03:15.412Z,19.20
2023-04-10T11:04:14.610Z,19.10
2023-04-10T11:05:15.983Z,19.00
2023-04-10T11:06:15.371Z,18.20
2023-04-10T11:07:13.253Z,18.60
2023-04-10T11:08:18.370Z,19.10
2023-04-10T11:09:13.631Z,19.40
2023-04-10T11:10:15.974Z,19.90
2023-04-10T11:11:14.676Z,19.50
2023-04-10T11:12:15.864Z,19.70
2023-04-10T11:13:14.075Z,20.30
2023-04-10T11:14:12.991Z,20.10
2023-04-10T11:15:13.307Z,19.70
2023-04-10T11:16:17.703Z,21.00
2023-04-10T11:17:16.910Z,20.70
2023-04-10T11:18:17.350Z,21.00
2023-04-10T11:19:21.739Z,20.90
2023-04-10T11:20:14.559Z,20.50
2023-04-10T11:21:13.480Z,21.10
2023-04-10T11:22:13.341Z,20.20
2023-04-10T11:23:17.069Z,19.60
2023-04-10T11:24:14.843Z,20.70
2023-04-10T11:25:15.373Z,20.50
2023-04-10T11:26:16.083Z,20.70
2023-04-10T11:27:19.165Z,20.70
2023-04-10T11:28:13.172Z,21.80
2023-04-10T11:29:14.606Z,22.10
2023-04-10T11:30:17.218Z,20.70
2023-04-10T11:31:16.695Z,20.20
2023-04-10T11:32:18.123Z,20.10
2023-04-10T11:33:13.055Z,21.10
2023-04-10T11:34:15.767Z,20.20
2023-04-10T11:35:16.550Z,20.10
2023-04-10T11:36:16.576Z,20.00
2023-04-10T11:37:13.545Z,19.80
2023-04-10T11:38:16.712Z,20.20
2023-04-10T11:39:13.610Z,19.80
2023-04-10T11:40:17.822Z,19.90
2023-04-10T11:41:15.510Z,20.10
2023-04-10T11:42:16.684Z,19.80
2023-04-10T11:43:13.767Z,20.10
2023-04-10T11:44:17.943Z,19.70
2023-04-10T11:45:16.869Z,19.80
2023-04-10T11:46:17.126Z,20.00
2023-04-10T11:47:17.537Z,20.30
2023-04-10T11:48:13.600Z,19.50
2023-04-10T11:49:15.878Z,19.70
2023-04-10T11:50:16.747Z,20.50
2023-04-10T11:51:13.786Z,21.10
2023-04-10T11:52:13.897Z,20.80
2023-04-10T11:53:14.614Z,21.40
2023-04-10T11:54:18.521Z,21.60
2023-04-10T11:55:13.623Z,21.00
2023-04-10T11:56:13.495Z,20.70
2023-04-10T11:57:16.788Z,21.10
2023-04-10T11:58:16.848Z,20.90
2023-04-10T11:59:14.153Z,20.00
2023-04-10T12:00:13.299Z,20.20
2023-04-10T12:01:14.807Z,19.40
2023-04-10T12:02:13.718Z,20.20
2023-04-10T12:03:13.906Z,21.30
2023-04-10T12:04:15.487Z,22.20
2023-04-10T12:05:13.977Z,21.10
2023-04-10T12:06:12.861Z,20.80
2023-04-10T12:07:17.181Z,20.90
2023-04-10T12:08:18.069Z,20.60
2023-04-10T12:09:16.832Z,20.30
2023-04-10T12:10:17.724Z,20.80
2023-04-10T12:11:18.970Z,20.30
2023-04-10T12:12:15.725Z,21.30
2023-04-10T12:13:13.674Z,20.60
2023-04-10T12:14:15.247Z,21.60
2023-04-10T12:15:16.530Z,20.40
2023-04-10T12:16:15.403Z,21.20
2023-04-10T12:17:14.805Z,20.90
2023-04-10T12:18:19.018Z,21.10
2023-04-10T12:19:16.517Z,21.20
2023-04-10T12:20:15.291Z,20.30
2023-04-10T12:21:14.620Z,21.00
2023-04-10T12:22:13.518Z,21.00
2023-04-10T12:23:13.546Z,21.20
2023-04-10T12:24:15.164Z,21.00
2023-04-10T12:25:16.269Z,21.00
2023-04-10T12:26:13.323Z,22.30
2023-04-10T12:27:14.905Z,20.80
2023-04-10T12:28:13.093Z,21.00
2023-04-10T12:29:13.360Z,21.60
2023-04-10T12:31:21.262Z,21.20
2023-04-10T12:32:13.273Z,20.30
2023-04-10T12:33:19.758Z,20.50
2023-04-10T12:34:15.401Z,20.80
2023-04-10T12:35:14.402Z,21.40
2023-04-10T12:37:23.872Z,21.40
2023-04-10T12:39:36.878Z,22.30
2023-04-10T12:40:14.394Z,22.00
2023-04-10T12:41:18.821Z,21.50
2023-04-10T12:42:23.908Z,19.90
2023-04-10T12:43:22.932Z,20.50
2023-04-10T12:44:13.276Z,21.20
2023-04-10T12:45:13.315Z,21.80
2023-04-10T12:46:24.958Z,21.10
2023-04-10T12:47:26.081Z,20.50
2023-04-10T12:48:13.383Z,21.20
2023-04-10T12:49:26.494Z,21.80
2023-04-10T12:50:13.374Z,21.80
2023-04-10T12:51:14.834Z,21.60
2023-04-10T12:52:13.865Z,21.70
2023-04-10T12:53:42.946Z,22.50
2023-04-10T12:54:13.234Z,21.80
2023-04-10T12:55:18.643Z,21.60
2023-04-10T12:56:25.479Z,21.60
2023-04-10T12:57:14.092Z,22.60
2023-04-10T12:58:29.962Z,22.00
2023-04-10T12:59:18.069Z,21.40
2023-04-10T13:00:12.994Z,21.80
2023-04-10T13:01:13.240Z,21.60
2023-04-10T13:02:13.320Z,21.40
2023-04-10T13:03:13.340Z,20.40
2023-04-10T13:04:13.545Z,21.50
2023-04-10T13:05:13.622Z,21.60
2023-04-10T13:06:13.434Z,21.80
2023-04-10T13:07:13.396Z,21.70